sensor_id;sensor_type;location;lat;lon;timestamp;pressure;altitude;pressure_sealevel;temperature;humidity
72961;BME280;61141;46.204;19.774;2023-04-29T00:02:10;100382.19;;;12.87;55.41
72961;BME280;61141;46.204;19.774;2023-04-29T00:05:13;100390.34;;;12.73;56.35
72961;BME280;61141;46.204;19.774;2023-04-29T00:08:16;100391.53;;;12.72;56.69
72961;BME280;61141;46.204;19.774;2023-04-29T00:11:19;100384.81;;;12.69;58.86
72961;BME280;61141;46.204;19.774;2023-04-29T00:14:22;100390.25;;;12.59;60.56
72961;BME280;61141;46.204;19.774;2023-04-29T00:17:26;100385.00;;;12.43;62.11
72961;BME280;61141;46.204;19.774;2023-04-29T00:20:29;100381.50;;;12.43;62.81
72961;BME280;61141;46.204;19.774;2023-04-29T00:23:33;100379.91;;;12.42;62.63
72961;BME280;61141;46.204;19.774;2023-04-29T00:26:36;100364.03;;;12.21;63.35
72961;BME280;61141;46.204;19.774;2023-04-29T00:29:39;100375.09;;;12.28;64.34
72961;BME280;61141;46.204;19.774;2023-04-29T00:32:42;100369.56;;;12.24;66.33
72961;BME280;61141;46.204;19.774;2023-04-29T00:35:46;100377.44;;;12.29;67.26
72961;BME280;61141;46.204;19.774;2023-04-29T00:38:50;100372.19;;;12.10;67.25
72961;BME280;61141;46.204;19.774;2023-04-29T00:41:53;100370.19;;;12.07;68.83
72961;BME280;61141;46.204;19.774;2023-04-29T00:44:55;100370.13;;;12.00;71.61
72961;BME280;61141;46.204;19.774;2023-04-29T00:47:58;100366.09;;;11.91;71.94
72961;BME280;61141;46.204;19.774;2023-04-29T00:51:02;100356.72;;;11.92;73.83
72961;BME280;61141;46.204;19.774;2023-04-29T00:54:06;100352.47;;;11.98;70.81
72961;BME280;61141;46.204;19.774;2023-04-29T00:57:09;100364.53;;;11.90;69.67
72961;BME280;61141;46.204;19.774;2023-04-29T01:00:12;100366.16;;;11.94;66.92
72961;BME280;61141;46.204;19.774;2023-04-29T01:03:18;100361.12;;;12.03;65.38
72961;BME280;61141;46.204;19.774;2023-04-29T01:13:13;100359.94;;;12.01;69.19
72961;BME280;61141;46.204;19.774;2023-04-29T01:16:42;100366.25;;;12.05;67.54
72961;BME280;61141;46.204;19.774;2023-04-29T01:19:51;100343.91;;;12.10;67.80
72961;BME280;61141;46.204;19.774;2023-04-29T01:22:56;100343.91;;;12.10;67.21
72961;BME280;61141;46.204;19.774;2023-04-29T01:26:00;100357.56;;;11.99;68.55
72961;BME280;61141;46.204;19.774;2023-04-29T01:29:34;100354.31;;;11.87;68.34
72961;BME280;61141;46.204;19.774;2023-04-29T01:37:08;100353.53;;;11.86;69.25
72961;BME280;61141;46.204;19.774;2023-04-29T01:43:31;100355.78;;;11.77;69.47
72961;BME280;61141;46.204;19.774;2023-04-29T01:46:36;100355.06;;;11.84;70.48
72961;BME280;61141;46.204;19.774;2023-04-29T01:49:39;100355.44;;;11.82;71.26
72961;BME280;61141;46.204;19.774;2023-04-29T01:52:43;100352.72;;;11.86;70.85
72961;BME280;61141;46.204;19.774;2023-04-29T01:55:45;100340.81;;;11.71;71.35
72961;BME280;61141;46.204;19.774;2023-04-29T01:58:49;100354.22;;;11.76;71.66
72961;BME280;61141;46.204;19.774;2023-04-29T02:01:52;100356.28;;;11.53;69.93
72961;BME280;61141;46.204;19.774;2023-04-29T02:04:56;100354.22;;;11.43;71.11
72961;BME280;61141;46.204;19.774;2023-04-29T02:07:59;100356.00;;;11.28;73.74
72961;BME280;61141;46.204;19.774;2023-04-29T02:11:03;100361.25;;;11.10;76.60
72961;BME280;61141;46.204;19.774;2023-04-29T02:14:06;100363.63;;;11.12;77.52
72961;BME280;61141;46.204;19.774;2023-04-29T02:17:09;100368.25;;;11.08;77.93
72961;BME280;61141;46.204;19.774;2023-04-29T02:20:15;100368.22;;;11.04;78.55
72961;BME280;61141;46.204;19.774;2023-04-29T02:23:18;100368.69;;;11.10;80.61
72961;BME280;61141;46.204;19.774;2023-04-29T02:26:21;100366.66;;;11.03;78.81
72961;BME280;61141;46.204;19.774;2023-04-29T02:29:25;100356.94;;;11.09;79.81
72961;BME280;61141;46.204;19.774;2023-04-29T02:32:30;100360.00;;;11.04;79.37
72961;BME280;61141;46.204;19.774;2023-04-29T02:35:33;100360.50;;;11.13;79.35
72961;BME280;61141;46.204;19.774;2023-04-29T02:38:36;100347.03;;;11.01;79.98
72961;BME280;61141;46.204;19.774;2023-04-29T02:41:39;100355.06;;;11.17;80.04
72961;BME280;61141;46.204;19.774;2023-04-29T02:44:45;100352.13;;;11.33;77.26
72961;BME280;61141;46.204;19.774;2023-04-29T02:47:48;100351.72;;;11.31;80.04
72961;BME280;61141;46.204;19.774;2023-04-29T02:50:51;100353.47;;;11.16;78.37
72961;BME280;61141;46.204;19.774;2023-04-29T02:53:55;100352.59;;;11.08;78.03
72961;BME280;61141;46.204;19.774;2023-04-29T02:56:57;100344.09;;;11.17;77.79
72961;BME280;61141;46.204;19.774;2023-04-29T03:00:00;100350.91;;;11.27;79.64
72961;BME280;61141;46.204;19.774;2023-04-29T03:03:03;100342.75;;;11.34;77.86
72961;BME280;61141;46.204;19.774;2023-04-29T03:06:07;100337.03;;;11.16;78.62
72961;BME280;61141;46.204;19.774;2023-04-29T03:09:10;100340.16;;;11.14;79.06
72961;BME280;61141;46.204;19.774;2023-04-29T03:12:14;100336.22;;;11.12;76.77
72961;BME280;61141;46.204;19.774;2023-04-29T03:15:20;100342.91;;;11.14;77.19
72961;BME280;61141;46.204;19.774;2023-04-29T03:18:23;100338.22;;;11.18;77.23
72961;BME280;61141;46.204;19.774;2023-04-29T03:21:26;100325.81;;;11.28;76.41
72961;BME280;61141;46.204;19.774;2023-04-29T03:24:29;100303.78;;;11.17;74.63
72961;BME280;61141;46.204;19.774;2023-04-29T03:27:32;100319.94;;;11.30;75.83
72961;BME280;61141;46.204;19.774;2023-04-29T03:30:35;100327.06;;;11.34;75.63
72961;BME280;61141;46.204;19.774;2023-04-29T03:33:38;100321.63;;;11.38;73.87
72961;BME280;61141;46.204;19.774;2023-04-29T03:36:41;100326.78;;;11.43;72.78
72961;BME280;61141;46.204;19.774;2023-04-29T03:39:44;100322.44;;;11.42;73.27
72961;BME280;61141;46.204;19.774;2023-04-29T03:42:48;100313.06;;;11.43;72.27
72961;BME280;61141;46.204;19.774;2023-04-29T03:45:51;100322.13;;;11.47;71.54
72961;BME280;61141;46.204;19.774;2023-04-29T03:48:56;100314.28;;;11.49;70.43
72961;BME280;61141;46.204;19.774;2023-04-29T03:51:59;100321.69;;;11.45;70.87
72961;BME280;61141;46.204;19.774;2023-04-29T03:55:03;100328.09;;;11.56;71.22
72961;BME280;61141;46.204;19.774;2023-04-29T03:58:06;100329.69;;;11.57;70.58
72961;BME280;61141;46.204;19.774;2023-04-29T04:01:09;100331.19;;;11.54;68.98
72961;BME280;61141;46.204;19.774;2023-04-29T04:04:14;100334.38;;;11.56;68.54
72961;BME280;61141;46.204;19.774;2023-04-29T04:07:18;100339.47;;;11.58;67.87
72961;BME280;61141;46.204;19.774;2023-04-29T04:10:25;100337.56;;;11.62;67.79
72961;BME280;61141;46.204;19.774;2023-04-29T04:13:30;100336.38;;;11.63;68.53
72961;BME280;61141;46.204;19.774;2023-04-29T04:16:33;100338.37;;;11.66;68.76
72961;BME280;61141;46.204;19.774;2023-04-29T04:19:36;100341.50;;;11.64;68.33
72961;BME280;61141;46.204;19.774;2023-04-29T04:22:39;100347.38;;;11.63;67.97
72961;BME280;61141;46.204;19.774;2023-04-29T04:25:44;100339.47;;;11.58;67.93
72961;BME280;61141;46.204;19.774;2023-04-29T04:28:49;100341.47;;;11.61;68.05
72961;BME280;61141;46.204;19.774;2023-04-29T04:31:52;100332.84;;;11.59;67.29
72961;BME280;61141;46.204;19.774;2023-04-29T04:34:56;100339.44;;;11.54;66.34
72961;BME280;61141;46.204;19.774;2023-04-29T04:37:58;100335.91;;;11.54;66.10
72961;BME280;61141;46.204;19.774;2023-04-29T04:41:01;100338.22;;;11.52;71.36
72961;BME280;61141;46.204;19.774;2023-04-29T04:44:05;100330.00;;;11.52;68.73
72961;BME280;61141;46.204;19.774;2023-04-29T04:47:08;100331.97;;;11.51;66.75
72961;BME280;61141;46.204;19.774;2023-04-29T04:50:13;100316.28;;;11.52;67.26
72961;BME280;61141;46.204;19.774;2023-04-29T04:53:19;100318.22;;;11.48;67.60
72961;BME280;61141;46.204;19.774;2023-04-29T04:56:24;100312.44;;;11.56;68.43
72961;BME280;61141;46.204;19.774;2023-04-29T04:59:27;100314.03;;;11.61;68.28
72961;BME280;61141;46.204;19.774;2023-04-29T05:02:30;100321.84;;;11.59;68.52
72961;BME280;61141;46.204;19.774;2023-04-29T05:05:33;100322.25;;;11.61;67.22
72961;BME280;61141;46.204;19.774;2023-04-29T05:08:36;100316.56;;;11.76;67.58
72961;BME280;61141;46.204;19.774;2023-04-29T05:11:40;100322.47;;;11.78;68.18
72961;BME280;61141;46.204;19.774;2023-04-29T05:14:44;100323.28;;;11.83;67.61
72961;BME280;61141;46.204;19.774;2023-04-29T05:17:48;100326.13;;;11.90;66.92
72961;BME280;61141;46.204;19.774;2023-04-29T05:20:51;100326.25;;;12.07;67.48
72961;BME280;61141;46.204;19.774;2023-04-29T05:23:54;100330.22;;;12.13;66.25
72961;BME280;61141;46.204;19.774;2023-04-29T05:26:57;100324.69;;;12.10;65.35
72961;BME280;61141;46.204;19.774;2023-04-29T05:30:00;100329.53;;;12.23;65.38
72961;BME280;61141;46.204;19.774;2023-04-29T05:33:03;100314.66;;;12.28;65.70
72961;BME280;61141;46.204;19.774;2023-04-29T05:36:07;100324.19;;;12.45;66.48
72961;BME280;61141;46.204;19.774;2023-04-29T05:39:10;100318.75;;;12.48;65.92
72961;BME280;61141;46.204;19.774;2023-04-29T05:42:14;100325.81;;;12.53;65.96
72961;BME280;61141;46.204;19.774;2023-04-29T05:45:17;100329.81;;;12.66;63.48
72961;BME280;61141;46.204;19.774;2023-04-29T05:48:20;100343.53;;;12.59;64.53
72961;BME280;61141;46.204;19.774;2023-04-29T05:51:23;100335.72;;;12.64;63.25
72961;BME280;61141;46.204;19.774;2023-04-29T05:54:27;100326.69;;;12.64;63.31
72961;BME280;61141;46.204;19.774;2023-04-29T05:57:30;100330.84;;;12.44;63.94
72961;BME280;61141;46.204;19.774;2023-04-29T06:00:34;100320.69;;;12.51;65.32
72961;BME280;61141;46.204;19.774;2023-04-29T06:03:37;100327.41;;;12.57;65.55
72961;BME280;61141;46.204;19.774;2023-04-29T06:06:42;100342.69;;;12.51;65.07
72961;BME280;61141;46.204;19.774;2023-04-29T06:09:46;100349.31;;;12.47;65.48
72961;BME280;61141;46.204;19.774;2023-04-29T06:12:49;100353.59;;;12.41;65.60
72961;BME280;61141;46.204;19.774;2023-04-29T06:15:53;100352.78;;;12.36;65.42
72961;BME280;61141;46.204;19.774;2023-04-29T06:18:56;100353.66;;;12.51;65.74
72961;BME280;61141;46.204;19.774;2023-04-29T06:22:00;100345.53;;;12.65;65.51
72961;BME280;61141;46.204;19.774;2023-04-29T06:25:04;100346.66;;;12.57;64.93
72961;BME280;61141;46.204;19.774;2023-04-29T06:28:08;100344.66;;;12.51;65.39
72961;BME280;61141;46.204;19.774;2023-04-29T06:31:11;100335.72;;;12.68;65.41
72961;BME280;61141;46.204;19.774;2023-04-29T06:34:15;100336.94;;;12.74;65.97
72961;BME280;61141;46.204;19.774;2023-04-29T06:37:22;100335.84;;;12.92;64.73
72961;BME280;61141;46.204;19.774;2023-04-29T06:40:26;100339.16;;;13.16;63.95
72961;BME280;61141;46.204;19.774;2023-04-29T06:43:29;100329.78;;;13.27;63.84
72961;BME280;61141;46.204;19.774;2023-04-29T06:46:33;100350.31;;;13.62;61.86
72961;BME280;61141;46.204;19.774;2023-04-29T06:49:36;100344.09;;;13.86;60.81
72961;BME280;61141;46.204;19.774;2023-04-29T06:52:40;100337.03;;;13.99;60.13
72961;BME280;61141;46.204;19.774;2023-04-29T06:55:44;100330.34;;;14.07;59.24
72961;BME280;61141;46.204;19.774;2023-04-29T06:58:48;100328.34;;;14.14;59.08
72961;BME280;61141;46.204;19.774;2023-04-29T07:01:51;100329.19;;;14.47;56.86
72961;BME280;61141;46.204;19.774;2023-04-29T07:04:54;100334.63;;;14.86;54.91
72961;BME280;61141;46.204;19.774;2023-04-29T07:07:57;100343.91;;;15.30;53.31
72961;BME280;61141;46.204;19.774;2023-04-29T07:11:00;100333.91;;;15.65;51.84
72961;BME280;61141;46.204;19.774;2023-04-29T07:14:03;100331.56;;;15.60;51.07
72961;BME280;61141;46.204;19.774;2023-04-29T07:17:06;100336.75;;;15.47;51.57
72961;BME280;61141;46.204;19.774;2023-04-29T07:20:09;100328.47;;;15.47;50.29
72961;BME280;61141;46.204;19.774;2023-04-29T07:23:13;100332.03;;;15.41;50.49
72961;BME280;61141;46.204;19.774;2023-04-29T07:26:16;100328.03;;;15.59;50.86
72961;BME280;61141;46.204;19.774;2023-04-29T07:29:19;100323.91;;;15.85;50.12
72961;BME280;61141;46.204;19.774;2023-04-29T07:32:22;100317.06;;;16.04;48.03
72961;BME280;61141;46.204;19.774;2023-04-29T07:35:26;100316.16;;;16.21;47.59
72961;BME280;61141;46.204;19.774;2023-04-29T07:38:29;100323.19;;;16.29;46.85
72961;BME280;61141;46.204;19.774;2023-04-29T07:41:33;100309.72;;;16.31;45.79
72961;BME280;61141;46.204;19.774;2023-04-29T07:44:36;100311.50;;;16.55;45.81
72961;BME280;61141;46.204;19.774;2023-04-29T07:47:39;100317.81;;;16.52;45.25
72961;BME280;61141;46.204;19.774;2023-04-29T07:50:43;100323.47;;;16.82;44.46
72961;BME280;61141;46.204;19.774;2023-04-29T07:53:46;100329.53;;;17.04;44.52
72961;BME280;61141;46.204;19.774;2023-04-29T07:56:48;100334.38;;;16.96;43.24
72961;BME280;61141;46.204;19.774;2023-04-29T07:59:54;100335.94;;;17.01;42.83
72961;BME280;61141;46.204;19.774;2023-04-29T08:02:57;100338.41;;;17.26;42.90
72961;BME280;61141;46.204;19.774;2023-04-29T08:06:03;100336.94;;;17.48;43.37
72961;BME280;61141;46.204;19.774;2023-04-29T08:09:08;100350.31;;;17.53;41.68
72961;BME280;61141;46.204;19.774;2023-04-29T08:12:11;100354.31;;;17.79;41.21
72961;BME280;61141;46.204;19.774;2023-04-29T08:15:15;100346.22;;;17.91;39.12
72961;BME280;61141;46.204;19.774;2023-04-29T08:18:20;100353.94;;;18.03;39.22
72961;BME280;61141;46.204;19.774;2023-04-29T08:21:23;100353.00;;;18.13;39.88
72961;BME280;61141;46.204;19.774;2023-04-29T08:24:26;100340.09;;;18.03;39.55
72961;BME280;61141;46.204;19.774;2023-04-29T08:27:30;100346.16;;;18.22;40.23
72961;BME280;61141;46.204;19.774;2023-04-29T08:30:37;100342.09;;;18.53;39.32
72961;BME280;61141;46.204;19.774;2023-04-29T08:33:40;100346.06;;;18.52;38.38
72961;BME280;61141;46.204;19.774;2023-04-29T08:36:43;100346.63;;;18.86;35.73
72961;BME280;61141;46.204;19.774;2023-04-29T08:39:47;100347.50;;;18.60;36.49
72961;BME280;61141;46.204;19.774;2023-04-29T08:42:51;100348.75;;;18.78;37.08
72961;BME280;61141;46.204;19.774;2023-04-29T08:45:57;100354.72;;;18.77;36.80
72961;BME280;61141;46.204;19.774;2023-04-29T08:49:02;100347.53;;;18.80;37.09
72961;BME280;61141;46.204;19.774;2023-04-29T08:52:05;100348.50;;;19.52;35.57
72961;BME280;61141;46.204;19.774;2023-04-29T08:55:09;100343.94;;;19.77;35.06
72961;BME280;61141;46.204;19.774;2023-04-29T08:58:13;100341.22;;;19.58;35.06
72961;BME280;61141;46.204;19.774;2023-04-29T09:01:17;100330.56;;;19.72;34.02
72961;BME280;61141;46.204;19.774;2023-04-29T09:04:30;100343.22;;;19.57;34.14
72961;BME280;61141;46.204;19.774;2023-04-29T09:07:40;100322.50;;;19.42;34.48
72961;BME280;61141;46.204;19.774;2023-04-29T09:10:43;100333.47;;;19.49;33.84
72961;BME280;61141;46.204;19.774;2023-04-29T09:13:47;100325.94;;;19.10;35.32
72961;BME280;61141;46.204;19.774;2023-04-29T09:16:50;100332.19;;;19.54;35.28
72961;BME280;61141;46.204;19.774;2023-04-29T09:19:53;100334.34;;;19.46;34.84
72961;BME280;61141;46.204;19.774;2023-04-29T09:23:00;100330.72;;;19.65;34.91
72961;BME280;61141;46.204;19.774;2023-04-29T09:26:03;100332.91;;;19.38;34.82
72961;BME280;61141;46.204;19.774;2023-04-29T09:29:10;100333.31;;;19.36;34.95
72961;BME280;61141;46.204;19.774;2023-04-29T09:32:18;100331.28;;;19.41;33.92
72961;BME280;61141;46.204;19.774;2023-04-29T09:35:25;100328.91;;;19.75;33.99
72961;BME280;61141;46.204;19.774;2023-04-29T09:38:28;100322.66;;;19.71;32.67
72961;BME280;61141;46.204;19.774;2023-04-29T09:41:31;100322.41;;;19.81;32.59
72961;BME280;61141;46.204;19.774;2023-04-29T09:44:34;100309.53;;;19.16;33.42
72961;BME280;61141;46.204;19.774;2023-04-29T09:47:37;100319.56;;;19.85;33.37
72961;BME280;61141;46.204;19.774;2023-04-29T09:50:41;100331.06;;;19.67;34.12
72961;BME280;61141;46.204;19.774;2023-04-29T09:53:45;100314.53;;;19.80;34.63
72961;BME280;61141;46.204;19.774;2023-04-29T09:56:49;100319.38;;;19.40;34.33
72961;BME280;61141;46.204;19.774;2023-04-29T09:59:53;100318.44;;;19.99;34.84
72961;BME280;61141;46.204;19.774;2023-04-29T10:02:58;100316.25;;;19.74;34.52
72961;BME280;61141;46.204;19.774;2023-04-29T10:06:04;100315.28;;;19.80;35.37
72961;BME280;61141;46.204;19.774;2023-04-29T10:09:12;100321.38;;;19.40;35.94
72961;BME280;61141;46.204;19.774;2023-04-29T10:12:19;100303.81;;;19.94;35.86
72961;BME280;61141;46.204;19.774;2023-04-29T10:15:28;100312.63;;;19.41;36.51
72961;BME280;61141;46.204;19.774;2023-04-29T10:18:36;100304.69;;;19.40;36.71
72961;BME280;61141;46.204;19.774;2023-04-29T10:21:42;100310.59;;;19.42;37.71
72961;BME280;61141;46.204;19.774;2023-04-29T10:24:46;100306.62;;;19.03;38.29
72961;BME280;61141;46.204;19.774;2023-04-29T10:27:50;100311.75;;;19.24;38.66
72961;BME280;61141;46.204;19.774;2023-04-29T10:30:57;100286.09;;;18.97;38.89
72961;BME280;61141;46.204;19.774;2023-04-29T10:34:02;100301.00;;;19.46;38.19
72961;BME280;61141;46.204;19.774;2023-04-29T10:37:09;100295.88;;;19.61;38.39
72961;BME280;61141;46.204;19.774;2023-04-29T10:40:41;100288.06;;;19.72;39.08
72961;BME280;61141;46.204;19.774;2023-04-29T10:43:46;100290.81;;;19.40;39.40
72961;BME280;61141;46.204;19.774;2023-04-29T10:47:18;100288.94;;;19.33;39.11
72961;BME280;61141;46.204;19.774;2023-04-29T10:50:27;100287.47;;;19.80;38.56
72961;BME280;61141;46.204;19.774;2023-04-29T10:53:30;100268.97;;;20.55;37.54
72961;BME280;61141;46.204;19.774;2023-04-29T10:59:46;100266.06;;;20.87;36.82
72961;BME280;61141;46.204;19.774;2023-04-29T11:02:49;100265.62;;;21.42;36.89
72961;BME280;61141;46.204;19.774;2023-04-29T11:06:07;100251.28;;;21.02;37.60
72961;BME280;61141;46.204;19.774;2023-04-29T11:09:18;100256.59;;;20.97;37.97
72961;BME280;61141;46.204;19.774;2023-04-29T11:12:22;100256.69;;;21.22;37.54
72961;BME280;61141;46.204;19.774;2023-04-29T11:15:25;100264.66;;;21.87;37.44
72961;BME280;61141;46.204;19.774;2023-04-29T11:18:28;100263.31;;;21.79;37.37
72961;BME280;61141;46.204;19.774;2023-04-29T11:21:35;100248.31;;;21.85;36.44
72961;BME280;61141;46.204;19.774;2023-04-29T11:24:57;100252.03;;;21.70;37.07
72961;BME280;61141;46.204;19.774;2023-04-29T11:28:02;100247.13;;;20.94;38.11
72961;BME280;61141;46.204;19.774;2023-04-29T11:31:07;100243.31;;;22.05;36.50
72961;BME280;61141;46.204;19.774;2023-04-29T11:34:10;100242.50;;;22.17;35.97
72961;BME280;61141;46.204;19.774;2023-04-29T11:37:21;100231.88;;;22.25;37.28
72961;BME280;61141;46.204;19.774;2023-04-29T11:40:25;100232.16;;;22.05;37.90
72961;BME280;61141;46.204;19.774;2023-04-29T11:43:28;100233.25;;;21.83;36.83
72961;BME280;61141;46.204;19.774;2023-04-29T11:46:31;100231.72;;;21.44;38.33
72961;BME280;61141;46.204;19.774;2023-04-29T11:49:34;100232.63;;;21.41;38.63
72961;BME280;61141;46.204;19.774;2023-04-29T11:52:39;100229.81;;;21.66;38.04
72961;BME280;61141;46.204;19.774;2023-04-29T11:55:46;100230.75;;;21.50;38.36
72961;BME280;61141;46.204;19.774;2023-04-29T11:58:53;100232.91;;;20.64;38.89
72961;BME280;61141;46.204;19.774;2023-04-29T12:01:58;100230.09;;;20.92;38.76
72961;BME280;61141;46.204;19.774;2023-04-29T12:05:06;100222.88;;;22.08;38.01
72961;BME280;61141;46.204;19.774;2023-04-29T12:08:19;100224.47;;;22.31;36.38
72961;BME280;61141;46.204;19.774;2023-04-29T12:11:22;100223.00;;;22.61;36.66
72961;BME280;61141;46.204;19.774;2023-04-29T12:14:27;100227.56;;;22.11;37.04
72961;BME280;61141;46.204;19.774;2023-04-29T12:17:30;100218.59;;;22.16;37.25
72961;BME280;61141;46.204;19.774;2023-04-29T12:20:33;100220.63;;;22.16;37.60
72961;BME280;61141;46.204;19.774;2023-04-29T12:23:36;100219.75;;;22.06;37.80
72961;BME280;61141;46.204;19.774;2023-04-29T12:26:39;100211.06;;;22.82;36.56
72961;BME280;61141;46.204;19.774;2023-04-29T12:29:45;100213.72;;;23.07;36.50
72961;BME280;61141;46.204;19.774;2023-04-29T12:32:50;100208.06;;;22.55;36.64
72961;BME280;61141;46.204;19.774;2023-04-29T12:35:57;100189.69;;;22.23;36.60
72961;BME280;61141;46.204;19.774;2023-04-29T12:39:00;100202.75;;;22.13;37.63
72961;BME280;61141;46.204;19.774;2023-04-29T12:42:03;100200.97;;;22.19;37.42
72961;BME280;61141;46.204;19.774;2023-04-29T12:45:06;100205.22;;;22.11;37.61
72961;BME280;61141;46.204;19.774;2023-04-29T12:48:10;100195.12;;;21.80;38.07
72961;BME280;61141;46.204;19.774;2023-04-29T12:51:27;100192.81;;;21.40;38.70
72961;BME280;61141;46.204;19.774;2023-04-29T12:54:30;100196.97;;;21.48;38.80
72961;BME280;61141;46.204;19.774;2023-04-29T12:57:33;100189.03;;;21.34;38.96
72961;BME280;61141;46.204;19.774;2023-04-29T13:00:36;100185.38;;;21.12;38.71
72961;BME280;61141;46.204;19.774;2023-04-29T13:03:39;100181.00;;;21.36;38.99
72961;BME280;61141;46.204;19.774;2023-04-29T13:06:43;100183.13;;;21.32;38.50
72961;BME280;61141;46.204;19.774;2023-04-29T13:09:45;100175.66;;;21.42;39.13
72961;BME280;61141;46.204;19.774;2023-04-29T13:12:49;100180.22;;;21.48;39.20
72961;BME280;61141;46.204;19.774;2023-04-29T13:15:52;100171.31;;;21.53;38.63
72961;BME280;61141;46.204;19.774;2023-04-29T13:18:55;100167.53;;;21.22;39.14
72961;BME280;61141;46.204;19.774;2023-04-29T13:22:18;100166.59;;;21.00;39.07
72961;BME280;61141;46.204;19.774;2023-04-29T13:25:21;100157.41;;;20.74;39.42
72961;BME280;61141;46.204;19.774;2023-04-29T13:28:24;100169.34;;;20.75;40.18
72961;BME280;61141;46.204;19.774;2023-04-29T13:31:27;100175.59;;;20.91;40.68
72961;BME280;61141;46.204;19.774;2023-04-29T13:34:30;100169.16;;;20.82;39.72
72961;BME280;61141;46.204;19.774;2023-04-29T13:37:33;100164.47;;;20.79;40.31
72961;BME280;61141;46.204;19.774;2023-04-29T13:40:36;100166.31;;;20.57;42.81
72961;BME280;61141;46.204;19.774;2023-04-29T13:43:46;100164.41;;;20.54;41.19
72961;BME280;61141;46.204;19.774;2023-04-29T13:46:52;100155.19;;;20.28;41.84
72961;BME280;61141;46.204;19.774;2023-04-29T13:49:55;100153.13;;;20.16;41.90
72961;BME280;61141;46.204;19.774;2023-04-29T13:53:01;100158.94;;;20.05;42.10
72961;BME280;61141;46.204;19.774;2023-04-29T13:56:24;100159.81;;;20.47;42.55
72961;BME280;61141;46.204;19.774;2023-04-29T13:59:31;100152.37;;;20.57;41.03
72961;BME280;61141;46.204;19.774;2023-04-29T14:02:37;100155.50;;;20.59;41.27
72961;BME280;61141;46.204;19.774;2023-04-29T14:05:41;100151.28;;;20.67;41.48
72961;BME280;61141;46.204;19.774;2023-04-29T14:08:44;100148.09;;;21.06;40.53
72961;BME280;61141;46.204;19.774;2023-04-29T14:11:48;100142.75;;;20.99;39.83
72961;BME280;61141;46.204;19.774;2023-04-29T14:14:51;100141.97;;;20.98;40.17
72961;BME280;61141;46.204;19.774;2023-04-29T14:17:55;100149.66;;;20.82;40.66
72961;BME280;61141;46.204;19.774;2023-04-29T14:20:58;100134.16;;;20.93;40.13
72961;BME280;61141;46.204;19.774;2023-04-29T14:24:02;100133.75;;;21.33;39.41
72961;BME280;61141;46.204;19.774;2023-04-29T14:27:05;100131.38;;;20.93;39.81
72961;BME280;61141;46.204;19.774;2023-04-29T14:30:08;100135.25;;;20.71;40.64
72961;BME280;61141;46.204;19.774;2023-04-29T14:33:12;100130.94;;;20.95;40.03
72961;BME280;61141;46.204;19.774;2023-04-29T14:36:15;100127.06;;;21.30;40.07
72961;BME280;61141;46.204;19.774;2023-04-29T14:39:18;100125.03;;;21.43;39.32
72961;BME280;61141;46.204;19.774;2023-04-29T14:42:21;100131.22;;;21.73;38.86
72961;BME280;61141;46.204;19.774;2023-04-29T14:45:24;100121.06;;;21.79;38.82
72961;BME280;61141;46.204;19.774;2023-04-29T14:48:27;100116.97;;;21.71;39.00
72961;BME280;61141;46.204;19.774;2023-04-29T14:51:30;100123.94;;;21.88;38.99
72961;BME280;61141;46.204;19.774;2023-04-29T14:54:33;100122.84;;;21.26;40.10
72961;BME280;61141;46.204;19.774;2023-04-29T14:57:36;100120.94;;;21.10;40.63
72961;BME280;61141;46.204;19.774;2023-04-29T15:00:39;100123.28;;;21.12;40.02
72961;BME280;61141;46.204;19.774;2023-04-29T15:03:42;100133.84;;;21.04;40.02
72961;BME280;61141;46.204;19.774;2023-04-29T15:06:47;100132.06;;;20.97;40.28
72961;BME280;61141;46.204;19.774;2023-04-29T15:09:50;100129.50;;;21.03;40.92
72961;BME280;61141;46.204;19.774;2023-04-29T15:12:53;100133.31;;;21.09;40.41
72961;BME280;61141;46.204;19.774;2023-04-29T15:15:56;100136.50;;;20.95;40.13
72961;BME280;61141;46.204;19.774;2023-04-29T15:19:00;100130.69;;;20.77;40.48
72961;BME280;61141;46.204;19.774;2023-04-29T15:22:04;100141.81;;;20.77;40.74
72961;BME280;61141;46.204;19.774;2023-04-29T15:25:07;100136.00;;;20.59;41.28
72961;BME280;61141;46.204;19.774;2023-04-29T15:28:11;100131.31;;;20.56;41.38
72961;BME280;61141;46.204;19.774;2023-04-29T15:31:14;100137.41;;;20.92;40.57
72961;BME280;61141;46.204;19.774;2023-04-29T15:34:17;100140.97;;;21.05;40.34
72961;BME280;61141;46.204;19.774;2023-04-29T15:37:20;100133.16;;;20.87;40.94
72961;BME280;61141;46.204;19.774;2023-04-29T15:40:24;100139.41;;;20.79;41.13
72961;BME280;61141;46.204;19.774;2023-04-29T15:43:28;100132.53;;;20.42;42.18
72961;BME280;61141;46.204;19.774;2023-04-29T15:46:31;100134.25;;;20.77;41.37
72961;BME280;61141;46.204;19.774;2023-04-29T15:49:34;100122.75;;;20.50;42.41
72961;BME280;61141;46.204;19.774;2023-04-29T15:52:37;100123.53;;;20.50;42.02
72961;BME280;61141;46.204;19.774;2023-04-29T15:55:40;100116.09;;;20.73;41.13
72961;BME280;61141;46.204;19.774;2023-04-29T15:58:43;100116.00;;;21.39;40.08
72961;BME280;61141;46.204;19.774;2023-04-29T16:01:46;100124.06;;;21.84;39.56
72961;BME280;61141;46.204;19.774;2023-04-29T16:04:49;100115.97;;;21.64;39.33
72961;BME280;61141;46.204;19.774;2023-04-29T16:07:52;100112.97;;;21.59;39.63
72961;BME280;61141;46.204;19.774;2023-04-29T16:10:55;100119.13;;;20.91;41.23